Time;durP1;ratioP1;P1;durP2;ratioP2;P2;SDS_P1;SDS_P2;PMS_P1;PMS_P2;Temp;Humidity;BMP_temperature;BMP_pressure;BME280_temperature;BME280_humidity;BME280_pressure;Samples;Min_cycle;Max_cycle;Signal;HPM_P1;HPM_P2
2023/08/06 00:02:29;;;;;;;0.88;0.52;;;23.60;47.90;;;;;;6296868;28;20029;-66
2023/08/06 00:05:30;;;;;;;0.60;0.50;;;23.60;48.00;;;;;;6296198;28;20043;-66
2023/08/06 00:08:30;;;;;;;0.77;0.60;;;23.60;48.70;;;;;;6278177;28;20689;-65
2023/08/06 00:11:31;;;;;;;0.73;0.57;;;23.60;47.90;;;;;;6296985;28;20051;-66
2023/08/06 00:14:32;;;;;;;0.40;0.40;;;23.60;47.90;;;;;;6302782;28;20516;-65
2023/08/06 00:17:34;;;;;;;0.82;0.50;;;23.60;48.00;;;;;;6298928;28;20016;-67
2023/08/06 00:20:34;;;;;;;0.90;0.60;;;23.60;47.90;;;;;;6296169;28;20028;-65
2023/08/06 00:23:35;;;;;;;0.68;0.55;;;23.60;47.90;;;;;;6277795;28;20516;-66
2023/08/06 00:26:36;;;;;;;0.68;0.60;;;23.60;47.90;;;;;;6295607;28;20071;-66
2023/08/06 00:29:36;;;;;;;0.38;0.38;;;23.60;47.90;;;;;;6277873;28;20040;-66
2023/08/06 00:32:37;;;;;;;0.65;0.50;;;23.60;47.90;;;;;;6296365;28;20079;-65
2023/08/06 00:35:38;;;;;;;1.38;0.50;;;23.60;48.00;;;;;;6295857;28;20574;-66
2023/08/06 00:38:38;;;;;;;0.57;0.40;;;23.60;47.90;;;;;;6295497;28;20032;-66
2023/08/06 00:41:39;;;;;;;0.88;0.57;;;23.60;47.80;;;;;;6295759;28;20428;-66
2023/08/06 00:44:40;;;;;;;0.47;0.43;;;23.60;47.90;;;;;;6277637;28;20428;-65
2023/08/06 00:47:42;;;;;;;0.80;0.43;;;23.60;47.80;;;;;;6295287;28;20032;-66
2023/08/06 00:50:42;;;;;;;0.60;0.35;;;23.60;47.90;;;;;;6295195;28;20087;-64
2023/08/06 00:53:43;;;;;;;0.57;0.50;;;23.60;47.80;;;;;;6295562;28;20491;-66
2023/08/06 00:56:46;;;;;;;0.60;0.50;;;23.60;47.90;;;;;;6294877;28;20066;-66
2023/08/06 00:59:47;;;;;;;0.55;0.43;;;23.60;47.80;;;;;;6295167;28;20116;-66
2023/08/06 01:02:48;;;;;;;0.40;0.35;;;23.60;47.80;;;;;;6295205;28;20489;-66
2023/08/06 01:05:50;;;;;;;0.60;0.50;;;23.60;47.90;;;;;;6277134;28;20055;-65
2023/08/06 01:08:59;;;;;;;0.60;0.50;;;23.60;47.90;;;;;;6294678;28;20039;-65
2023/08/06 01:12:24;;;;;;;0.50;0.50;;;23.60;47.90;;;;;;6295339;28;20082;-66
2023/08/06 01:15:30;;;;;;;0.40;0.40;;;23.60;47.90;;;;;;6308201;28;20028;-65
2023/08/06 01:18:31;;;;;;;0.40;0.40;;;23.60;47.80;;;;;;6279411;28;20274;-65
2023/08/06 01:21:32;;;;;;;0.60;0.50;;;23.60;47.70;;;;;;6294718;28;20238;-65
2023/08/06 01:24:32;;;;;;;0.50;0.45;;;23.60;47.80;;;;;;6294377;28;20037;-66
2023/08/06 01:27:44;;;;;;;0.68;0.55;;;23.60;47.80;;;;;;6294499;28;20111;-66
2023/08/06 01:30:48;;;;;;;0.45;0.40;;;23.60;47.80;;;;;;6294058;28;20021;-65
2023/08/06 01:33:50;;;;;;;0.50;0.50;;;23.60;47.80;;;;;;6293997;28;20477;-65
2023/08/06 01:36:52;;;;;;;0.60;0.50;;;23.60;47.60;;;;;;6294208;28;20658;-65
2023/08/06 01:39:52;;;;;;;0.60;0.40;;;23.60;47.70;;;;;;6294201;28;20103;-65
2023/08/06 01:42:53;;;;;;;0.30;0.30;;;23.60;47.80;;;;;;6276423;28;20035;-66
2023/08/06 01:45:53;;;;;;;0.50;0.40;;;23.60;47.80;;;;;;6294302;28;20389;-65
2023/08/06 01:48:54;;;;;;;0.47;0.47;;;23.60;47.70;;;;;;6293896;28;20442;-66
2023/08/06 01:51:55;;;;;;;0.65;0.60;;;23.60;47.70;;;;;;6293742;28;20398;-66
2023/08/06 01:54:56;;;;;;;0.38;0.38;;;23.60;47.60;;;;;;6275187;28;20041;-66
2023/08/06 01:57:56;;;;;;;0.45;0.32;;;23.60;47.70;;;;;;6275773;28;20036;-66
2023/08/06 02:00:57;;;;;;;0.43;0.43;;;23.60;47.70;;;;;;6293737;28;20265;-66
2023/08/06 02:03:58;;;;;;;0.50;0.43;;;23.60;47.60;;;;;;6293572;28;20048;-66
2023/08/06 02:06:58;;;;;;;0.30;0.30;;;23.60;47.70;;;;;;6293495;28;20032;-66
2023/08/06 02:09:59;;;;;;;0.47;0.47;;;23.60;47.70;;;;;;6293501;28;20123;-65
2023/08/06 02:13:00;;;;;;;0.63;0.40;;;23.60;47.60;;;;;;6293685;28;20100;-67
2023/08/06 02:16:01;;;;;;;0.50;0.50;;;23.60;47.70;;;;;;6293585;28;20122;-66
2023/08/06 02:19:02;;;;;;;0.35;0.35;;;23.60;47.60;;;;;;6299974;28;20107;-66
2023/08/06 02:22:04;;;;;;;0.60;0.60;;;23.60;47.60;;;;;;6292788;28;20397;-66
2023/08/06 02:25:07;;;;;;;0.73;0.40;;;23.60;47.50;;;;;;6293503;28;20087;-66
2023/08/06 02:28:08;;;;;;;0.55;0.50;;;23.60;47.60;;;;;;6292922;28;20071;-65
2023/08/06 02:31:09;;;;;;;0.60;0.50;;;23.60;47.50;;;;;;6293325;28;20112;-66
2023/08/06 02:34:10;;;;;;;0.93;0.63;;;23.60;47.60;;;;;;6293122;28;20035;-65
2023/08/06 02:37:10;;;;;;;0.40;0.40;;;23.60;47.60;;;;;;6293084;28;20045;-66
2023/08/06 02:40:11;;;;;;;0.50;0.50;;;23.60;47.50;;;;;;6268096;28;20406;-66
2023/08/06 02:43:13;;;;;;;0.50;0.50;;;23.60;47.50;;;;;;6276037;28;20035;-66
2023/08/06 02:46:13;;;;;;;0.50;0.43;;;23.60;47.50;;;;;;6275017;28;20103;-66
2023/08/06 02:49:14;;;;;;;0.65;0.63;;;23.60;47.40;;;;;;6293036;28;20033;-66
2023/08/06 02:52:14;;;;;;;0.30;0.30;;;23.60;47.40;;;;;;6292770;28;20473;-66
2023/08/06 02:55:15;;;;;;;0.50;0.50;;;23.60;47.50;;;;;;6292711;28;20032;-66
2023/08/06 02:58:16;;;;;;;0.50;0.50;;;23.60;47.60;;;;;;6275264;28;20029;-66
2023/08/06 03:01:17;;;;;;;0.47;0.40;;;23.60;47.50;;;;;;6293114;28;20491;-65
2023/08/06 03:04:18;;;;;;;0.50;0.45;;;23.60;47.40;;;;;;6293716;28;20048;-66
2023/08/06 03:07:18;;;;;;;0.93;0.40;;;23.60;47.30;;;;;;6297962;28;20078;-65
2023/08/06 03:10:19;;;;;;;0.85;0.60;;;23.60;47.40;;;;;;6279484;28;20036;-66
2023/08/06 03:13:20;;;;;;;0.40;0.40;;;23.60;47.40;;;;;;6299614;28;20158;-65
2023/08/06 03:16:21;;;;;;;0.57;0.57;;;23.60;48.00;;;;;;6300875;28;20033;-66
2023/08/06 03:19:21;;;;;;;0.30;0.30;;;23.30;49.10;;;;;;6297723;28;20032;-66
2023/08/06 03:22:22;;;;;;;0.50;0.50;;;23.10;49.70;;;;;;6297241;28;20032;-66
2023/08/06 03:25:23;;;;;;;0.40;0.40;;;23.00;50.40;;;;;;6297095;28;20535;-66
2023/08/06 03:28:23;;;;;;;0.55;0.45;;;22.90;50.80;;;;;;6297187;28;20032;-66
2023/08/06 03:31:24;;;;;;;0.52;0.52;;;22.90;51.40;;;;;;6296923;28;20033;-66
2023/08/06 03:34:25;;;;;;;0.40;0.40;;;22.80;51.60;;;;;;6296775;28;20417;-66
2023/08/06 03:37:25;;;;;;;0.77;0.60;;;22.80;52.50;;;;;;6297289;28;20028;-65
2023/08/06 03:40:26;;;;;;;0.80;0.50;;;22.80;52.10;;;;;;6297065;28;20743;-66
2023/08/06 03:43:27;;;;;;;0.50;0.43;;;22.80;52.20;;;;;;6296627;28;20051;-66
2023/08/06 03:46:29;;;;;;;0.77;0.50;;;22.70;52.40;;;;;;6297064;28;20070;-65
2023/08/06 03:49:29;;;;;;;0.68;0.65;;;22.70;52.40;;;;;;6296471;28;20036;-66
2023/08/06 03:52:30;;;;;;;0.45;0.45;;;22.70;52.50;;;;;;6296917;28;20056;-66
2023/08/06 03:55:30;;;;;;;0.50;0.50;;;22.70;53.10;;;;;;6296451;28;20033;-66
2023/08/06 03:58:31;;;;;;;0.60;0.50;;;22.70;52.70;;;;;;6296833;28;20063;-65
2023/08/06 04:01:32;;;;;;;0.50;0.43;;;22.70;53.10;;;;;;6271777;28;20100;-65
2023/08/06 04:04:32;;;;;;;0.40;0.40;;;22.60;52.70;;;;;;6279146;28;20166;-66
2023/08/06 04:07:33;;;;;;;0.50;0.50;;;22.60;53.10;;;;;;6278229;28;20075;-65
2023/08/06 04:10:34;;;;;;;0.40;0.40;;;22.60;52.70;;;;;;6296240;28;20079;-66
2023/08/06 04:13:34;;;;;;;0.40;0.40;;;22.60;53.00;;;;;;6295823;28;20021;-66
2023/08/06 04:16:35;;;;;;;0.47;0.47;;;22.60;53.10;;;;;;6295146;28;20500;-66
2023/08/06 04:19:35;;;;;;;0.40;0.40;;;22.60;53.10;;;;;;6296350;28;20500;-66
2023/08/06 04:22:36;;;;;;;0.40;0.40;;;22.60;53.00;;;;;;6295770;28;20393;-67
2023/08/06 04:25:37;;;;;;;0.30;0.30;;;22.60;53.30;;;;;;6295490;28;20028;-67
2023/08/06 04:28:38;;;;;;;0.40;0.40;;;22.60;53.20;;;;;;6295804;28;20094;-66
2023/08/06 04:31:38;;;;;;;0.70;0.50;;;22.60;53.00;;;;;;6295607;28;20088;-66
2023/08/06 04:34:39;;;;;;;0.40;0.40;;;22.60;53.20;;;;;;6295902;28;20537;-66
2023/08/06 04:37:39;;;;;;;0.50;0.40;;;22.60;53.10;;;;;;6295443;28;20029;-66
2023/08/06 04:40:41;;;;;;;0.60;0.50;;;22.60;53.10;;;;;;6295759;28;20032;-66
2023/08/06 04:43:41;;;;;;;1.08;0.70;;;22.60;53.20;;;;;;6295292;28;20553;-66
2023/08/06 04:46:42;;;;;;;1.30;0.65;;;22.60;53.60;;;;;;6295481;28;20028;-66
2023/08/06 04:49:43;;;;;;;0.95;0.70;;;22.60;53.60;;;;;;6295644;28;20036;-66
2023/08/06 04:52:43;;;;;;;1.15;0.90;;;22.60;53.60;;;;;;6295404;28;20025;-65
2023/08/06 04:55:44;;;;;;;1.45;0.90;;;22.60;53.50;;;;;;6294952;28;20180;-66
2023/08/06 04:58:45;;;;;;;1.10;0.63;;;22.50;53.90;;;;;;6295066;28;20520;-66
2023/08/06 05:01:45;;;;;;;1.38;0.80;;;22.50;53.60;;;;;;6268512;28;20382;-66
2023/08/06 05:04:46;;;;;;;0.90;0.68;;;22.50;53.80;;;;;;6270003;28;20042;-66
2023/08/06 05:07:49;;;;;;;1.50;0.80;;;22.50;53.70;;;;;;6271322;28;20049;-66
2023/08/06 05:10:50;;;;;;;1.30;0.80;;;22.50;53.60;;;;;;6294873;28;20043;-66
2023/08/06 05:13:51;;;;;;;1.33;0.82;;;22.50;53.60;;;;;;6294834;28;20425;-66
2023/08/06 05:16:51;;;;;;;0.90;0.70;;;22.50;53.70;;;;;;6294467;28;20474;-66
2023/08/06 05:19:52;;;;;;;1.25;0.70;;;22.50;53.80;;;;;;6276670;28;20035;-66
2023/08/06 05:22:52;;;;;;;1.42;0.90;;;22.50;53.80;;;;;;6276965;28;20044;-66
2023/08/06 05:25:53;;;;;;;0.98;0.60;;;22.50;53.70;;;;;;6294428;28;20468;-66
2023/08/06 05:28:54;;;;;;;1.00;0.80;;;22.50;53.80;;;;;;6293293;28;20397;-67
2023/08/06 05:31:54;;;;;;;0.80;0.68;;;22.50;53.80;;;;;;6294285;28;20374;-66
2023/08/06 05:34:55;;;;;;;0.82;0.65;;;22.50;53.90;;;;;;6294500;28;20589;-66
2023/08/06 05:37:56;;;;;;;0.77;0.68;;;22.50;53.90;;;;;;6276344;28;20554;-66
2023/08/06 05:40:56;;;;;;;0.85;0.68;;;22.50;54.00;;;;;;6294510;28;20037;-65
2023/08/06 05:43:57;;;;;;;0.52;0.47;;;22.50;54.00;;;;;;6294002;28;20025;-66
2023/08/06 05:46:58;;;;;;;0.77;0.68;;;22.50;54.00;;;;;;6276170;28;20036;-66
2023/08/06 05:49:58;;;;;;;0.63;0.50;;;22.50;54.10;;;;;;6293464;28;20036;-66
2023/08/06 05:52:59;;;;;;;0.95;0.60;;;22.50;54.10;;;;;;6294048;28;20429;-66
2023/08/06 05:56:00;;;;;;;0.90;0.60;;;22.50;54.10;;;;;;6293554;28;20029;-66
2023/08/06 05:59:00;;;;;;;1.13;0.50;;;22.50;54.20;;;;;;6275607;28;20408;-65
2023/08/06 06:02:01;;;;;;;1.25;0.75;;;22.50;54.20;;;;;;6293654;28;20029;-66
2023/08/06 06:05:01;;;;;;;0.60;0.50;;;22.50;54.20;;;;;;6293508;28;20412;-66
2023/08/06 06:08:02;;;;;;;0.65;0.60;;;22.40;54.20;;;;;;6293269;28;20025;-67
2023/08/06 06:11:03;;;;;;;0.50;0.50;;;22.40;54.30;;;;;;6293978;28;20030;-66
2023/08/06 06:14:03;;;;;;;0.50;0.50;;;22.40;54.20;;;;;;6280727;28;20056;-66
2023/08/06 06:17:04;;;;;;;0.73;0.55;;;22.40;54.30;;;;;;6293068;28;20029;-66
2023/08/06 06:20:06;;;;;;;0.82;0.77;;;22.40;54.30;;;;;;6275527;28;20063;-66
2023/08/06 06:23:06;;;;;;;0.60;0.50;;;22.40;54.30;;;;;;6293149;28;20605;-65
2023/08/06 06:26:07;;;;;;;0.70;0.60;;;22.40;54.30;;;;;;6293195;28;20036;-66
2023/08/06 06:29:07;;;;;;;0.47;0.40;;;22.40;54.30;;;;;;6293154;28;20497;-66
2023/08/06 06:32:08;;;;;;;0.40;0.40;;;22.40;54.30;;;;;;6293861;28;20044;-66
2023/08/06 06:35:09;;;;;;;0.65;0.50;;;22.40;54.30;;;;;;6275217;28;20505;-66
2023/08/06 06:38:10;;;;;;;0.75;0.50;;;22.40;54.40;;;;;;6292886;28;20021;-66
2023/08/06 06:41:11;;;;;;;0.98;0.50;;;22.40;54.40;;;;;;6292902;28;20056;-66
2023/08/06 06:44:11;;;;;;;0.50;0.32;;;22.40;54.40;;;;;;6293159;28;20542;-66
2023/08/06 06:47:12;;;;;;;0.82;0.50;;;22.40;54.50;;;;;;6293310;28;20047;-66
2023/08/06 06:50:13;;;;;;;0.80;0.75;;;22.40;54.50;;;;;;6293128;28;20442;-66
2023/08/06 06:53:14;;;;;;;0.70;0.60;;;22.40;54.50;;;;;;6292955;28;20055;-67
2023/08/06 06:56:15;;;;;;;0.80;0.63;;;22.40;54.50;;;;;;6292749;28;20058;-66
2023/08/06 06:59:15;;;;;;;1.02;0.50;;;22.40;54.50;;;;;;6274869;28;20033;-66
2023/08/06 07:02:16;;;;;;;0.50;0.50;;;22.40;54.50;;;;;;6274925;28;20040;-67
2023/08/06 07:05:17;;;;;;;0.70;0.50;;;22.40;54.50;;;;;;6275050;28;20036;-66
2023/08/06 07:08:18;;;;;;;0.85;0.50;;;22.40;54.50;;;;;;6274968;28;20044;-66
2023/08/06 07:11:19;;;;;;;0.47;0.47;;;22.40;54.60;;;;;;6274514;28;20033;-67
2023/08/06 07:14:19;;;;;;;0.60;0.57;;;22.40;54.60;;;;;;6293055;28;20021;-66
2023/08/06 07:17:20;;;;;;;0.55;0.50;;;22.40;54.60;;;;;;6292692;28;20554;-66
2023/08/06 07:20:21;;;;;;;0.65;0.45;;;22.40;54.60;;;;;;6274880;28;20039;-66
2023/08/06 07:23:23;;;;;;;0.50;0.43;;;22.40;54.70;;;;;;6292705;28;20028;-66
2023/08/06 07:26:24;;;;;;;0.50;0.50;;;22.40;54.70;;;;;;6274787;28;20047;-66
2023/08/06 07:29:25;;;;;;;0.70;0.50;;;22.40;54.70;;;;;;6274280;28;20036;-66
2023/08/06 07:32:27;;;;;;;0.50;0.50;;;22.40;54.70;;;;;;6292423;28;20036;-67
2023/08/06 07:35:29;;;;;;;0.50;0.47;;;22.40;54.70;;;;;;6292599;28;20063;-66
2023/08/06 07:38:30;;;;;;;0.50;0.50;;;22.40;54.80;;;;;;6292251;28;20477;-66
2023/08/06 07:41:30;;;;;;;0.57;0.57;;;22.40;54.80;;;;;;6292455;28;20032;-66
2023/08/06 07:44:31;;;;;;;0.40;0.40;;;22.40;54.80;;;;;;6292455;28;20063;-66
2023/08/06 07:47:32;;;;;;;0.60;0.60;;;22.40;54.80;;;;;;6278753;28;20393;-67
2023/08/06 07:50:33;;;;;;;0.40;0.40;;;22.40;54.80;;;;;;6271825;28;20035;-66
2023/08/06 07:53:34;;;;;;;1.08;0.60;;;22.40;54.80;;;;;;6294666;28;20490;-67
2023/08/06 07:56:36;;;;;;;0.40;0.40;;;22.40;54.80;;;;;;6295442;28;20028;-67
2023/08/06 07:59:37;;;;;;;0.40;0.35;;;22.40;54.90;;;;;;6295064;28;20405;-67
2023/08/06 08:02:38;;;;;;;0.55;0.50;;;22.40;54.80;;;;;;6294784;28;20127;-67
2023/08/06 08:05:38;;;;;;;0.65;0.55;;;22.40;54.90;;;;;;6295152;28;20045;-67
2023/08/06 08:08:40;;;;;;;0.57;0.57;;;22.40;54.90;;;;;;6295002;28;20025;-67
2023/08/06 08:11:41;;;;;;;0.88;0.55;;;22.40;54.90;;;;;;6295717;28;20114;-67
2023/08/06 08:14:45;;;;;;;0.65;0.65;;;22.40;54.90;;;;;;6295147;28;20512;-67
2023/08/06 08:17:47;;;;;;;0.50;0.50;;;22.40;55.00;;;;;;6295323;28;20107;-67
2023/08/06 08:20:48;;;;;;;0.55;0.50;;;22.30;54.90;;;;;;6270367;28;20029;-67
2023/08/06 08:23:49;;;;;;;0.47;0.47;;;22.40;55.00;;;;;;6260052;28;20044;-66
2023/08/06 08:26:53;;;;;;;0.30;0.30;;;22.30;55.00;;;;;;6300895;28;20497;-67
2023/08/06 08:29:53;;;;;;;0.75;0.57;;;22.30;55.00;;;;;;6282607;28;20543;-67
2023/08/06 08:32:54;;;;;;;0.30;0.30;;;22.30;55.00;;;;;;6276798;28;20033;-67
2023/08/06 08:35:55;;;;;;;0.50;0.45;;;22.40;55.10;;;;;;6294395;28;20031;-67
2023/08/06 08:38:56;;;;;;;0.50;0.50;;;22.30;55.10;;;;;;6276430;28;20117;-67
2023/08/06 08:41:57;;;;;;;0.50;0.40;;;22.30;55.00;;;;;;6277397;28;20054;-67
2023/08/06 08:44:58;;;;;;;0.50;0.50;;;22.30;55.10;;;;;;6295293;28;20082;-66
2023/08/06 08:47:59;;;;;;;0.40;0.38;;;22.40;55.20;;;;;;6295548;28;20558;-67
2023/08/06 08:51:00;;;;;;;0.40;0.40;;;22.40;55.20;;;;;;6295041;28;20028;-66
2023/08/06 08:54:03;;;;;;;0.40;0.38;;;22.30;55.20;;;;;;6294823;28;20573;-66
2023/08/06 08:57:04;;;;;;;0.60;0.60;;;22.30;55.20;;;;;;6293001;28;20060;-67
2023/08/06 09:00:06;;;;;;;0.77;0.50;;;22.30;55.20;;;;;;6295698;28;20059;-67
2023/08/06 09:03:07;;;;;;;0.70;0.60;;;22.30;55.20;;;;;;6292283;28;20413;-67
2023/08/06 09:06:11;;;;;;;0.50;0.50;;;22.30;55.20;;;;;;6293864;28;20489;-67
2023/08/06 09:09:26;;;;;;;0.40;0.40;;;22.30;55.20;;;;;;6293496;28;20111;-65
2023/08/06 09:12:27;;;;;;;0.75;0.30;;;22.30;55.20;;;;;;6274668;28;20028;-66
2023/08/06 09:15:28;;;;;;;0.40;0.40;;;22.30;55.30;;;;;;6294406;28;20024;-67
2023/08/06 09:18:32;;;;;;;0.40;0.40;;;22.30;55.30;;;;;;6294819;28;20033;-67
2023/08/06 09:21:32;;;;;;;0.60;0.60;;;22.30;55.30;;;;;;6291308;28;20107;-66
2023/08/06 09:24:33;;;;;;;0.52;0.50;;;22.30;55.30;;;;;;6293886;28;20039;-66
2023/08/06 09:27:33;;;;;;;0.60;0.50;;;22.30;55.30;;;;;;6295057;28;20407;-68
2023/08/06 09:30:37;;;;;;;0.57;0.57;;;22.30;55.30;;;;;;6277784;28;20036;-68
2023/08/06 09:33:38;;;;;;;0.40;0.40;;;22.30;55.40;;;;;;6278750;28;20036;-69
2023/08/06 09:36:41;;;;;;;0.57;0.50;;;22.30;55.40;;;;;;6286363;28;20039;-68
2023/08/06 09:39:42;;;;;;;0.52;0.50;;;22.30;55.40;;;;;;6292697;28;20397;-68
2023/08/06 09:42:45;;;;;;;0.40;0.40;;;22.30;55.40;;;;;;6276919;28;20036;-68
2023/08/06 09:45:45;;;;;;;0.60;0.50;;;22.30;55.40;;;;;;6280376;28;20067;-68
2023/08/06 09:48:48;;;;;;;0.45;0.45;;;22.30;55.40;;;;;;6274742;28;20040;-69
2023/08/06 09:51:51;;;;;;;0.55;0.50;;;22.30;55.50;;;;;;6274100;28;20497;-68
2023/08/06 09:54:53;;;;;;;0.43;0.43;;;22.30;55.50;;;;;;6284000;28;20027;-68
2023/08/06 09:57:54;;;;;;;0.75;0.60;;;22.30;55.50;;;;;;6293591;28;20028;-66
2023/08/06 10:00:55;;;;;;;0.57;0.40;;;22.30;55.60;;;;;;6293242;28;20577;-66
2023/08/06 10:03:58;;;;;;;0.40;0.40;;;22.30;55.60;;;;;;6292960;28;20053;-67
2023/08/06 10:07:00;;;;;;;0.93;0.55;;;22.30;55.80;;;;;;6293888;28;20092;-66
2023/08/06 10:10:02;;;;;;;0.40;0.40;;;22.30;56.30;;;;;;6293798;28;20052;-67
2023/08/06 10:13:06;;;;;;;0.50;0.47;;;22.40;56.00;;;;;;6291690;28;20043;-66
2023/08/06 10:16:07;;;;;;;0.85;0.70;;;22.40;55.90;;;;;;6292680;28;20040;-65
2023/08/06 10:19:11;;;;;;;0.40;0.40;;;22.40;56.10;;;;;;6293564;28;20032;-66
2023/08/06 10:22:17;;;;;;;0.40;0.40;;;22.40;56.10;;;;;;6306696;28;20070;-67
2023/08/06 10:25:18;;;;;;;0.38;0.38;;;22.40;56.20;;;;;;6283784;28;20068;-66
2023/08/06 10:28:19;;;;;;;0.50;0.43;;;22.30;56.10;;;;;;6274880;28;20546;-65
2023/08/06 10:31:21;;;;;;;0.45;0.45;;;22.30;56.10;;;;;;6288095;28;20045;-67
2023/08/06 10:34:22;;;;;;;0.43;0.40;;;22.30;56.10;;;;;;6289468;28;20112;-67
2023/08/06 10:37:43;;;;;;;0.40;0.40;;;22.30;56.10;;;;;;6289421;28;20028;-67
2023/08/06 10:40:53;;;;;;;0.43;0.30;;;22.30;56.20;;;;;;6291986;28;20033;-67
2023/08/06 10:44:14;;;;;;;0.50;0.50;;;22.30;56.30;;;;;;6292350;28;20028;-66
2023/08/06 10:47:30;;;;;;;0.40;0.40;;;22.30;56.10;;;;;;6292828;28;20481;-67
2023/08/06 10:50:31;;;;;;;0.50;0.50;;;22.40;56.20;;;;;;6292063;28;20033;-66
2023/08/06 10:53:32;;;;;;;0.60;0.50;;;22.40;56.30;;;;;;6292289;28;20024;-67
2023/08/06 10:56:41;;;;;;;2.88;0.50;;;22.40;56.30;;;;;;6292655;28;20051;-66
2023/08/06 10:59:41;;;;;;;0.40;0.40;;;22.40;56.40;;;;;;6292790;28;20056;-66
2023/08/06 11:02:43;;;;;;;0.60;0.50;;;22.40;56.50;;;;;;6292886;28;20032;-66
2023/08/06 11:05:50;;;;;;;0.68;0.60;;;22.40;56.40;;;;;;6292180;28;20064;-67
2023/08/06 11:08:53;;;;;;;2.67;0.50;;;22.40;56.40;;;;;;6292373;28;20037;-66
2023/08/06 11:11:53;;;;;;;3.53;0.60;;;22.40;56.50;;;;;;6274815;28;20040;-66
2023/08/06 11:14:55;;;;;;;1.13;0.60;;;22.40;56.50;;;;;;6292115;28;20385;-67
2023/08/06 11:17:56;;;;;;;1.65;0.65;;;22.40;56.50;;;;;;6292608;28;20044;-67
2023/08/06 11:21:00;;;;;;;2.00;0.50;;;22.40;56.70;;;;;;6292502;28;20032;-67
2023/08/06 11:24:00;;;;;;;0.77;0.50;;;22.40;56.70;;;;;;6292290;28;20025;-67
2023/08/06 11:27:01;;;;;;;0.32;0.32;;;22.40;56.70;;;;;;6277746;28;20064;-67
2023/08/06 11:30:02;;;;;;;0.50;0.50;;;22.30;56.60;;;;;;6297027;28;20082;-67
2023/08/06 11:33:03;;;;;;;0.43;0.43;;;22.30;56.60;;;;;;6279072;28;20067;-66
2023/08/06 11:36:04;;;;;;;0.60;0.55;;;22.40;57.00;;;;;;6278730;28;20119;-67
2023/08/06 11:39:05;;;;;;;0.90;0.45;;;22.40;57.00;;;;;;6296789;28;20024;-66
2023/08/06 11:42:06;;;;;;;3.15;0.60;;;22.40;56.80;;;;;;6296958;28;20040;-66
2023/08/06 11:45:09;;;;;;;0.50;0.50;;;22.40;56.80;;;;;;6296301;28;20082;-66
2023/08/06 11:48:10;;;;;;;1.13;0.52;;;22.40;56.80;;;;;;6296579;28;20024;-67
2023/08/06 11:51:15;;;;;;;0.80;0.70;;;22.30;56.70;;;;;;6294579;28;20094;-66
2023/08/06 11:54:15;;;;;;;;;;;22.40;56.80;;;;;;6297057;28;20482;-67
2023/08/06 11:57:16;;;;;;;0.50;0.50;;;22.40;56.80;;;;;;6277791;28;19911;-67
2023/08/06 12:00:22;;;;;;;0.60;0.60;;;22.40;56.80;;;;;;6295969;28;20036;-67
2023/08/06 12:03:27;;;;;;;1.23;0.38;;;22.40;56.80;;;;;;6277396;28;20082;-67
2023/08/06 12:06:27;;;;;;;0.52;0.52;;;22.30;56.80;;;;;;6277886;28;20142;-67
2023/08/06 12:09:28;;;;;;;0.50;0.50;;;22.40;56.80;;;;;;6277771;28;20090;-67
2023/08/06 12:12:29;;;;;;;0.40;0.40;;;22.40;56.80;;;;;;6277771;28;20457;-67
2023/08/06 12:15:30;;;;;;;0.63;0.55;;;22.40;56.90;;;;;;6296085;28;20028;-68
2023/08/06 12:18:30;;;;;;;0.47;0.47;;;22.40;55.70;;;;;;6295897;28;20029;-66
2023/08/06 12:21:31;;;;;;;1.20;0.57;;;22.50;54.40;;;;;;6293019;28;20044;-68
2023/08/06 12:24:32;;;;;;;1.92;0.60;;;22.70;54.60;;;;;;6293679;28;20043;-68
2023/08/06 12:27:33;;;;;;;0.80;0.70;;;22.90;53.00;;;;;;6294010;28;20048;-68
2023/08/06 12:30:33;;;;;;;0.85;0.50;;;23.10;52.30;;;;;;6293951;28;20566;-68
2023/08/06 12:33:34;;;;;;;1.02;0.60;;;23.20;51.70;;;;;;6293822;28;20104;-67
2023/08/06 12:36:35;;;;;;;0.75;0.40;;;23.30;51.40;;;;;;6293445;28;20033;-67
2023/08/06 12:39:37;;;;;;;1.38;0.52;;;23.40;51.00;;;;;;6293983;28;20129;-68
2023/08/06 12:42:38;;;;;;;0.98;0.60;;;23.50;51.00;;;;;;6293758;28;20117;-67
2023/08/06 12:45:38;;;;;;;0.43;0.35;;;23.50;50.90;;;;;;6294040;28;20044;-68
2023/08/06 12:48:39;;;;;;;1.00;0.50;;;23.50;50.90;;;;;;6294124;28;20037;-68
2023/08/06 12:51:40;;;;;;;0.68;0.50;;;23.50;51.00;;;;;;6287222;28;20056;-68
2023/08/06 12:54:41;;;;;;;0.85;0.63;;;23.50;50.90;;;;;;6294193;28;20082;-68
2023/08/06 12:57:42;;;;;;;3.00;0.60;;;23.50;50.80;;;;;;6275650;28;20035;-68
2023/08/06 13:00:43;;;;;;;1.70;0.60;;;23.60;50.70;;;;;;6293587;28;20043;-68
2023/08/06 13:03:43;;;;;;;1.58;0.50;;;23.60;50.50;;;;;;6293188;28;20067;-67
2023/08/06 13:06:44;;;;;;;0.85;0.68;;;23.60;50.40;;;;;;6267291;28;20040;-67
2023/08/06 13:09:45;;;;;;;1.27;0.40;;;23.60;50.30;;;;;;6293231;28;20108;-68
2023/08/06 13:12:45;;;;;;;0.52;0.40;;;23.60;50.20;;;;;;6293036;28;20028;-68
2023/08/06 13:15:46;;;;;;;0.85;0.43;;;23.60;50.20;;;;;;6292662;28;20657;-68
2023/08/06 13:18:47;;;;;;;0.70;0.57;;;23.70;50.00;;;;;;6293036;28;20094;-68
2023/08/06 13:21:49;;;;;;;1.25;0.60;;;23.70;49.80;;;;;;6275391;28;20036;-68
2023/08/06 13:24:50;;;;;;;0.40;0.40;;;23.70;49.80;;;;;;6274308;28;20036;-67
2023/08/06 13:27:51;;;;;;;2.15;0.90;;;23.70;49.70;;;;;;6275347;28;20063;-68
2023/08/06 13:30:52;;;;;;;11.05;1.48;;;23.80;49.80;;;;;;6274226;28;20570;-68
2023/08/06 13:33:55;;;;;;;16.17;1.55;;;23.80;49.90;;;;;;6274787;28;20082;-68
2023/08/06 13:36:56;;;;;;;5.93;1.25;;;23.80;50.10;;;;;;6292363;28;20086;-68
2023/08/06 13:39:56;;;;;;;4.60;1.10;;;23.70;50.00;;;;;;6274637;28;20036;-68
2023/08/06 13:42:57;;;;;;;6.05;1.23;;;23.70;50.00;;;;;;6292298;28;20033;-69
2023/08/06 13:45:58;;;;;;;5.03;1.42;;;23.70;49.90;;;;;;6274447;28;20592;-69
2023/08/06 13:48:59;;;;;;;3.83;0.90;;;23.70;49.70;;;;;;6291769;28;20040;-68
2023/08/06 13:52:00;;;;;;;4.90;1.30;;;23.70;49.80;;;;;;6292477;28;20032;-68
2023/08/06 13:55:00;;;;;;;2.25;0.73;;;23.70;49.60;;;;;;6291753;28;20028;-69
2023/08/06 13:58:01;;;;;;;1.55;0.85;;;23.70;49.70;;;;;;6292351;28;20469;-68
2023/08/06 14:01:02;;;;;;;4.88;1.10;;;23.70;49.60;;;;;;6292079;28;20126;-68
2023/08/06 14:04:02;;;;;;;3.50;0.80;;;23.70;49.60;;;;;;6291769;28;20064;-68
2023/08/06 14:07:04;;;;;;;2.15;0.73;;;23.70;49.60;;;;;;6292342;28;20028;-68
2023/08/06 14:10:06;;;;;;;3.00;0.82;;;23.70;49.50;;;;;;6291878;28;20111;-69
2023/08/06 14:13:06;;;;;;;1.33;0.73;;;23.70;49.30;;;;;;6274148;28;20146;-68
2023/08/06 14:16:08;;;;;;;1.52;0.90;;;23.70;49.30;;;;;;6283134;28;20147;-69
2023/08/06 14:19:08;;;;;;;3.40;0.80;;;23.70;49.30;;;;;;6292137;28;20036;-68
2023/08/06 14:22:09;;;;;;;3.53;0.90;;;23.70;49.20;;;;;;6273020;28;20021;-69
2023/08/06 14:25:10;;;;;;;2.78;1.00;;;23.70;49.20;;;;;;6282880;28;20452;-68
2023/08/06 14:28:11;;;;;;;2.10;1.13;;;23.70;49.10;;;;;;6291189;28;20433;-68
2023/08/06 14:31:12;;;;;;;1.77;0.60;;;23.70;49.10;;;;;;6291601;28;20113;-69
2023/08/06 14:34:13;;;;;;;1.25;0.70;;;23.70;49.00;;;;;;6273607;28;20027;-68
2023/08/06 14:37:14;;;;;;;2.50;0.77;;;23.70;49.20;;;;;;6273500;28;20028;-68
2023/08/06 14:40:15;;;;;;;1.92;0.80;;;23.70;49.10;;;;;;6275908;28;20560;-69
2023/08/06 14:43:15;;;;;;;2.03;0.75;;;23.70;49.00;;;;;;6273180;28;20157;-68
2023/08/06 14:46:16;;;;;;;1.52;0.70;;;23.70;49.60;;;;;;6272851;28;20029;-68
2023/08/06 14:49:17;;;;;;;1.67;0.82;;;23.70;48.80;;;;;;6273994;28;20037;-69
2023/08/06 14:52:18;;;;;;;1.73;0.73;;;23.70;48.70;;;;;;6291155;28;20017;-68
2023/08/06 14:55:25;;;;;;;1.10;0.75;;;23.70;48.80;;;;;;6291122;28;20044;-69
2023/08/06 14:58:27;;;;;;;0.90;0.63;;;23.70;48.80;;;;;;6273091;28;20086;-69
2023/08/06 15:01:27;;;;;;;0.90;0.52;;;23.70;48.70;;;;;;6294559;28;20040;-69
2023/08/06 15:04:28;;;;;;;1.35;0.60;;;23.70;48.70;;;;;;6295792;28;20203;-68
2023/08/06 15:07:30;;;;;;;0.50;0.50;;;23.70;48.60;;;;;;6296343;28;20064;-69
2023/08/06 15:10:31;;;;;;;0.75;0.60;;;23.70;48.60;;;;;;6278980;28;20025;-69
2023/08/06 15:13:32;;;;;;;0.70;0.55;;;23.70;48.60;;;;;;6261826;28;20044;-68
2023/08/06 15:16:34;;;;;;;0.98;0.70;;;23.70;48.70;;;;;;6291383;28;20829;-68
2023/08/06 15:19:34;;;;;;;0.80;0.40;;;23.70;48.70;;;;;;6278855;28;20059;-68
2023/08/06 15:22:35;;;;;;;1.13;0.60;;;23.70;48.60;;;;;;6265694;28;20033;-68
2023/08/06 15:25:36;;;;;;;0.88;0.50;;;23.70;48.60;;;;;;6277802;28;20036;-69
2023/08/06 15:28:37;;;;;;;1.23;0.70;;;23.60;48.40;;;;;;6295689;28;20032;-68
2023/08/06 15:31:39;;;;;;;0.68;0.50;;;23.70;48.60;;;;;;6295997;28;20588;-68
2023/08/06 15:34:40;;;;;;;0.73;0.60;;;23.70;48.60;;;;;;6295403;28;20024;-68
2023/08/06 15:37:40;;;;;;;1.33;0.60;;;23.70;48.50;;;;;;6295734;28;20685;-69
2023/08/06 15:40:45;;;;;;;1.40;0.80;;;23.70;48.40;;;;;;6278008;28;20115;-68
2023/08/06 15:43:46;;;;;;;0.70;0.60;;;23.70;48.30;;;;;;6294964;28;20089;-68
2023/08/06 15:46:46;;;;;;;1.20;0.50;;;23.70;48.30;;;;;;6267079;28;20036;-68